createdAt,value
2024-03-11T00:00:20.843Z,93527.00
2024-03-11T00:01:20.969Z,93525.00
2024-03-11T00:02:21.057Z,93531.00
2024-03-11T00:03:21.108Z,93532.00
2024-03-11T00:04:21.190Z,93534.00
2024-03-11T00:05:21.279Z,93539.00
2024-03-11T00:55:49.305Z,93596.00
2024-03-11T00:56:21.668Z,93597.00
2024-03-11T00:57:21.603Z,93596.00
2024-03-11T00:58:21.603Z,93597.00
2024-03-11T00:59:21.641Z,93596.00
2024-03-11T01:00:21.610Z,93597.00
2024-03-11T01:01:21.611Z,93599.00
2024-03-11T01:02:21.653Z,93600.00
2024-03-11T01:03:21.610Z,93601.00
2024-03-11T01:04:21.626Z,93600.00
2024-03-11T01:05:21.653Z,93600.00
2024-03-11T01:06:21.625Z,93602.00
2024-03-11T01:07:27.882Z,93600.00
2024-03-11T01:08:21.678Z,93603.00
2024-03-11T01:09:21.631Z,93602.00
2024-03-11T01:10:21.632Z,93600.00
2024-03-11T01:11:21.765Z,93602.00
2024-03-11T01:12:21.678Z,93603.00
2024-03-11T01:13:21.638Z,93603.00
2024-03-11T01:14:21.658Z,93605.00
2024-03-11T01:15:21.634Z,93603.00
2024-03-11T01:16:21.641Z,93605.00
2024-03-11T01:17:21.681Z,93605.00
2024-03-11T01:18:21.695Z,93605.00
2024-03-11T01:19:23.491Z,93601.00
2024-03-11T01:20:21.727Z,93609.00
2024-03-11T01:21:21.641Z,93606.00
2024-03-11T01:22:21.641Z,93610.00
2024-03-11T01:23:21.742Z,93607.00
2024-03-11T01:24:21.652Z,93606.00
2024-03-11T01:25:21.649Z,93608.00
2024-03-11T01:26:21.671Z,93610.00
2024-03-11T01:27:21.708Z,93608.00
2024-03-11T01:28:21.653Z,93607.00
2024-03-11T01:29:21.670Z,93608.00
2024-03-11T01:30:21.658Z,93606.00
2024-03-11T01:31:21.644Z,93609.00
2024-03-11T01:32:21.740Z,93611.00
2024-03-11T01:33:21.731Z,93609.00
2024-03-11T01:34:21.695Z,93611.00
2024-03-11T01:35:21.733Z,93611.00
2024-03-11T01:36:21.660Z,93610.00
2024-03-11T01:37:21.652Z,93612.00
2024-03-11T01:38:21.688Z,93614.00
2024-03-11T01:39:21.654Z,93619.00
2024-03-11T01:40:21.676Z,93617.00
2024-03-11T01:41:21.713Z,93619.00
2024-03-11T01:42:21.652Z,93622.00
2024-03-11T01:43:21.904Z,93624.00
2024-03-11T01:44:21.682Z,93625.00
2024-03-11T01:45:21.658Z,93624.00
2024-03-11T01:46:21.670Z,93626.00
2024-03-11T01:47:21.686Z,93628.00
2024-03-11T01:48:21.706Z,93630.00
2024-03-11T01:49:21.674Z,93630.00
2024-03-11T01:50:21.724Z,93630.00
2024-03-11T01:51:21.696Z,93632.00
2024-03-11T01:52:21.764Z,93629.00
2024-03-11T01:53:21.901Z,93631.00
2024-03-11T01:54:21.952Z,93633.00
2024-03-11T01:55:22.056Z,93634.00
2024-03-11T01:56:22.169Z,93636.00
2024-03-11T01:57:22.241Z,93637.00
2024-03-11T01:58:22.339Z,93636.00
2024-03-11T01:59:22.500Z,93638.00
2024-03-11T02:00:22.534Z,93637.00
2024-03-11T02:01:22.653Z,93639.00
2024-03-11T02:02:22.739Z,93644.00
2024-03-11T02:03:22.803Z,93642.00
2024-03-11T02:04:22.906Z,93639.00
2024-03-11T02:05:23.039Z,93641.00
2024-03-11T02:06:23.107Z,93639.00
2024-03-11T02:07:23.202Z,93642.00
2024-03-11T02:08:23.342Z,93647.00
2024-03-11T02:09:23.396Z,93646.00
2024-03-11T02:10:23.511Z,93649.00
2024-03-11T02:11:23.637Z,93647.00
2024-03-11T02:12:23.681Z,93646.00
2024-03-11T02:13:23.774Z,93649.00
2024-03-11T02:14:23.921Z,93648.00
2024-03-11T02:15:23.992Z,93649.00
2024-03-11T02:16:24.135Z,93649.00
2024-03-11T02:17:24.221Z,93648.00
2024-03-11T02:18:24.346Z,93648.00
2024-03-11T02:19:24.364Z,93650.00
2024-03-11T02:20:24.691Z,93653.00
2024-03-11T02:21:24.532Z,93655.00
2024-03-11T02:22:24.624Z,93655.00
2024-03-11T02:23:24.810Z,93656.00
2024-03-11T02:24:24.832Z,93656.00
2024-03-11T02:25:24.917Z,93656.00
2024-03-11T02:26:25.083Z,93654.00
2024-03-11T02:27:25.114Z,93655.00
2024-03-11T02:28:25.208Z,93655.00
2024-03-11T02:29:25.344Z,93657.00
2024-03-11T02:30:25.433Z,93658.00
2024-03-11T02:31:25.508Z,93657.00
2024-03-11T02:32:25.700Z,93657.00
2024-03-11T02:33:25.731Z,93661.00
2024-03-11T02:34:25.768Z,93659.00
2024-03-11T02:35:25.893Z,93658.00
2024-03-11T02:36:25.961Z,93658.00
2024-03-11T02:37:26.058Z,93658.00
2024-03-11T02:38:26.085Z,93660.00
2024-03-11T02:39:26.109Z,93664.00
2024-03-11T02:40:26.136Z,93666.00
2024-03-11T02:41:26.232Z,93669.00
2024-03-11T02:42:26.165Z,93669.00
2024-03-11T02:43:26.181Z,93671.00
2024-03-11T02:44:26.299Z,93675.00
2024-03-11T02:45:26.348Z,93676.00
2024-03-11T02:46:26.476Z,93680.00
2024-03-11T02:47:26.602Z,93679.00
2024-03-11T02:48:26.670Z,93683.00
2024-03-11T02:49:26.725Z,93686.00
2024-03-11T02:50:26.825Z,93688.00
2024-03-11T02:51:26.945Z,93692.00
2024-03-11T02:52:27.022Z,93694.00
2024-03-11T02:53:27.162Z,93695.00
2024-03-11T02:54:27.207Z,93696.00
2024-03-11T02:55:27.290Z,93697.00
2024-03-11T02:56:27.462Z,93698.00
2024-03-11T02:57:27.482Z,93696.00
2024-03-11T02:58:27.580Z,93698.00
2024-03-11T02:59:27.733Z,93699.00
2024-03-11T03:00:27.767Z,93700.00
2024-03-11T03:01:27.869Z,93704.00
2024-03-11T03:02:28.054Z,93707.00
2024-03-11T03:03:28.107Z,93709.00
2024-03-11T03:04:28.156Z,93711.00
2024-03-11T03:05:28.317Z,93708.00
2024-03-11T03:06:28.337Z,93708.00
2024-03-11T03:07:28.421Z,93711.00
2024-03-11T03:08:28.553Z,93713.00
2024-03-11T03:09:28.622Z,93718.00
2024-03-11T03:10:28.723Z,93719.00
2024-03-11T03:11:28.895Z,93724.00
2024-03-11T03:12:28.909Z,93727.00
2024-03-11T03:13:28.985Z,93729.00
2024-03-11T03:14:29.115Z,93730.00
2024-03-11T03:15:29.201Z,93729.00
2024-03-11T03:16:29.266Z,93728.00
2024-03-11T03:17:29.466Z,93727.00
2024-03-11T03:18:29.523Z,93728.00
2024-03-11T03:19:29.573Z,93728.00
2024-03-11T03:20:29.676Z,93729.00
2024-03-11T03:21:29.743Z,93730.00
2024-03-11T03:22:29.833Z,93730.00
2024-03-11T03:23:29.981Z,93729.00
2024-03-11T03:24:30.029Z,93728.00
2024-03-11T03:25:30.120Z,93730.00
2024-03-11T03:26:30.245Z,93728.00
2024-03-11T03:27:30.316Z,93729.00
2024-03-11T03:28:30.421Z,93731.00
2024-03-11T03:29:30.557Z,93730.00
2024-03-11T03:30:30.621Z,93728.00
2024-03-11T03:31:30.706Z,93730.00
2024-03-11T03:32:30.923Z,93729.00
2024-03-11T03:33:30.945Z,93730.00
2024-03-11T03:34:30.993Z,93733.00
2024-03-11T03:35:31.143Z,93735.00
2024-03-11T03:36:31.196Z,93737.00
2024-03-11T03:37:31.344Z,93736.00
2024-03-11T03:38:31.425Z,93738.00
2024-03-11T03:39:31.481Z,93738.00
2024-03-11T03:40:31.573Z,93741.00
2024-03-11T03:41:31.716Z,93740.00
2024-03-11T03:42:31.761Z,93742.00
2024-03-11T03:43:31.863Z,93744.00
2024-03-11T03:44:32.013Z,93747.00
2024-03-11T03:45:32.056Z,93747.00
2024-03-11T03:46:32.154Z,93751.00
2024-03-11T03:47:32.486Z,93755.00
2024-03-11T03:48:32.393Z,93757.00
2024-03-11T03:49:32.476Z,93757.00
2024-03-11T03:50:32.593Z,93759.00
2024-03-11T03:51:32.687Z,93761.00
2024-03-11T03:52:32.727Z,93764.00
2024-03-11T03:53:32.839Z,93769.00
2024-03-11T03:54:32.959Z,93767.00
2024-03-11T03:55:33.044Z,93773.00
2024-03-11T03:56:33.161Z,93774.00
2024-03-11T03:57:33.216Z,93773.00
2024-03-11T03:58:35.800Z,93773.00
2024-03-11T03:59:33.405Z,93775.00
2024-03-11T04:00:33.299Z,93774.00
2024-03-11T04:01:33.338Z,93774.00
2024-03-11T04:02:33.354Z,93774.00
2024-03-11T04:03:33.303Z,93775.00
2024-03-11T04:04:33.301Z,93773.00
2024-03-11T04:05:33.373Z,93775.00
2024-03-11T04:06:33.303Z,93776.00
2024-03-11T04:07:33.327Z,93777.00
2024-03-11T04:08:33.415Z,93781.00
2024-03-11T04:09:33.304Z,93784.00
2024-03-11T04:10:33.302Z,93784.00
2024-03-11T04:11:33.441Z,93787.00
2024-03-11T04:12:33.311Z,93789.00
2024-03-11T04:13:33.304Z,93790.00
2024-03-11T04:14:33.365Z,93790.00
2024-03-11T04:15:33.306Z,93792.00
2024-03-11T04:16:33.315Z,93793.00
2024-03-11T04:17:33.428Z,93793.00
2024-03-11T04:18:33.419Z,93794.00
2024-03-11T04:19:33.312Z,93797.00
2024-03-11T04:20:33.383Z,93797.00
2024-03-11T04:21:33.344Z,93800.00
2024-03-11T04:22:33.308Z,93803.00
2024-03-11T04:23:33.392Z,93804.00
2024-03-11T04:24:33.343Z,93806.00
2024-03-11T04:25:33.401Z,93808.00
2024-03-11T04:26:33.353Z,93809.00
2024-03-11T04:27:33.358Z,93810.00
2024-03-11T04:28:33.343Z,93813.00
2024-03-11T04:29:33.364Z,93812.00
2024-03-11T04:30:33.400Z,93814.00
2024-03-11T04:31:33.358Z,93814.00
2024-03-11T04:32:33.613Z,93818.00
2024-03-11T04:33:33.466Z,93819.00
2024-03-11T04:34:33.446Z,93822.00
2024-03-11T04:35:33.705Z,93821.00
2024-03-11T04:36:33.634Z,93823.00
2024-03-11T04:37:33.746Z,93820.00
2024-03-11T04:38:33.829Z,93822.00
2024-03-11T04:39:33.999Z,93824.00
2024-03-11T04:40:34.008Z,93823.00
2024-03-11T04:41:34.185Z,93825.00
2024-03-11T04:42:34.206Z,93826.00
2024-03-11T04:43:34.322Z,93829.00
2024-03-11T04:44:34.492Z,93828.00
2024-03-11T04:45:34.481Z,93832.00
2024-03-11T04:46:34.574Z,93833.00
2024-03-11T04:47:41.898Z,93838.00
2024-03-11T04:48:42.892Z,93838.00
2024-03-11T04:49:42.828Z,93840.00
2024-03-11T04:50:44.095Z,93841.00
2024-03-11T04:51:42.829Z,93840.00
2024-03-11T04:52:42.850Z,93842.00
2024-03-11T04:53:42.874Z,93845.00
2024-03-11T04:54:42.845Z,93847.00
2024-03-11T04:55:42.822Z,93850.00
2024-03-11T04:56:42.883Z,93851.00
2024-03-11T04:57:42.842Z,93852.00
2024-03-11T04:58:42.846Z,93856.00
2024-03-11T04:59:42.973Z,93854.00
2024-03-11T05:00:42.874Z,93857.00
2024-03-11T05:01:42.844Z,93856.00
2024-03-11T05:02:42.937Z,93859.00
2024-03-11T05:03:42.824Z,93861.00
2024-03-11T05:04:42.832Z,93861.00
2024-03-11T05:05:42.895Z,93863.00
2024-03-11T05:06:42.832Z,93866.00
2024-03-11T05:07:42.841Z,93868.00
2024-03-11T05:08:42.906Z,93867.00
2024-03-11T05:09:42.837Z,93869.00
2024-03-11T05:10:42.872Z,93869.00
2024-03-11T05:11:42.970Z,93870.00
2024-03-11T05:12:42.838Z,93869.00
2024-03-11T05:13:42.846Z,93871.00
2024-03-11T05:14:42.975Z,93872.00
2024-03-11T05:15:42.853Z,93874.00
2024-03-11T05:16:42.851Z,93874.00
2024-03-11T05:17:45.635Z,93875.00
2024-03-11T05:18:42.898Z,93878.00
2024-03-11T05:19:42.858Z,93878.00
2024-03-11T05:20:42.858Z,93879.00
2024-03-11T05:21:42.870Z,93881.00
2024-03-11T05:22:42.869Z,93882.00
2024-03-11T05:23:42.878Z,93885.00
2024-03-11T05:24:42.880Z,93885.00
2024-03-11T05:25:42.863Z,93888.00
2024-03-11T05:26:42.942Z,93891.00
2024-03-11T05:27:42.908Z,93892.00
2024-03-11T05:28:42.870Z,93892.00
2024-03-11T05:29:42.965Z,93893.00
2024-03-11T05:30:42.898Z,93897.00
2024-03-11T05:31:42.920Z,93896.00
2024-03-11T05:32:43.118Z,93895.00
2024-03-11T05:33:42.939Z,93896.00
2024-03-11T05:34:42.877Z,93897.00
2024-03-11T05:35:42.966Z,93899.00
2024-03-11T05:36:42.921Z,93902.00
2024-03-11T05:37:42.921Z,93902.00
2024-03-11T05:38:43.015Z,93903.00
2024-03-11T05:39:42.919Z,93905.00
2024-03-11T05:40:42.986Z,93906.00
2024-03-11T05:41:43.052Z,93907.00
2024-03-11T05:42:43.372Z,93908.00
2024-03-11T05:43:42.971Z,93908.00
2024-03-11T05:44:43.070Z,93908.00
2024-03-11T05:45:43.068Z,93908.00
2024-03-11T05:46:43.132Z,93908.00
2024-03-11T05:47:43.651Z,93907.00
2024-03-11T05:48:43.286Z,93903.00
2024-03-11T05:49:43.287Z,93904.00
2024-03-11T05:50:43.367Z,93905.00
2024-03-11T05:51:43.390Z,93903.00
2024-03-11T05:52:43.431Z,93904.00
2024-03-11T05:53:43.528Z,93904.00
2024-03-11T05:54:43.544Z,93902.00
2024-03-11T05:55:43.592Z,93904.00
2024-03-11T05:56:43.733Z,93902.00
2024-03-11T05:57:43.701Z,93902.00
2024-03-11T05:58:43.779Z,93904.00
2024-03-11T05:59:43.856Z,93904.00
2024-03-11T06:00:43.854Z,93906.00
2024-03-11T06:01:43.882Z,93904.00
2024-03-11T06:02:43.945Z,93907.00
2024-03-11T06:03:43.999Z,93906.00
2024-03-11T06:04:44.065Z,93907.00
2024-03-11T06:05:44.154Z,93906.00
2024-03-11T06:06:44.220Z,93908.00
2024-03-11T06:07:44.454Z,93908.00
2024-03-11T06:08:44.437Z,93909.00
2024-03-11T06:09:44.435Z,93910.00
2024-03-11T06:10:44.528Z,93913.00
2024-03-11T06:11:44.707Z,93914.00
2024-03-11T06:12:44.969Z,93915.00
2024-03-11T06:13:44.737Z,93913.00
2024-03-11T06:14:44.891Z,93910.00
2024-03-11T06:15:44.893Z,93909.00
2024-03-11T06:16:44.950Z,93909.00
2024-03-11T06:17:45.120Z,93909.00
2024-03-11T06:18:45.196Z,93911.00
2024-03-11T06:19:45.184Z,93912.00
2024-03-11T06:20:45.255Z,93914.00
2024-03-11T06:21:45.334Z,93915.00
2024-03-11T06:22:45.397Z,93916.00
2024-03-11T06:23:45.525Z,93916.00
2024-03-11T06:24:45.551Z,93919.00
2024-03-11T06:25:45.657Z,93920.00
2024-03-11T06:26:45.780Z,93921.00
2024-03-11T06:27:45.790Z,93924.00
2024-03-11T06:28:48.969Z,93925.00
2024-03-11T06:29:45.909Z,93933.00
2024-03-11T06:30:45.872Z,93936.00
2024-03-11T06:31:45.848Z,93933.00
2024-03-11T06:32:46.115Z,93934.00
2024-03-11T06:33:45.899Z,93935.00
2024-03-11T06:34:45.891Z,93938.00
2024-03-11T06:35:46.062Z,93939.00
2024-03-11T06:36:45.912Z,93951.00
2024-03-11T06:37:45.981Z,93943.00
2024-03-11T06:38:45.945Z,93949.00
2024-03-11T06:39:46.040Z,93950.00
2024-03-11T06:40:47.012Z,93955.00
2024-03-11T06:41:46.296Z,93955.00
2024-03-11T06:42:46.146Z,93957.00
2024-03-11T06:43:46.481Z,93958.00
2024-03-11T06:44:46.275Z,93957.00
2024-03-11T06:45:46.283Z,93958.00
2024-03-11T06:46:46.409Z,93959.00
2024-03-11T06:47:46.481Z,93958.00
2024-03-11T06:48:46.638Z,93961.00
2024-03-11T06:49:46.539Z,93962.00
2024-03-11T06:50:46.621Z,93966.00
2024-03-11T06:51:46.701Z,93965.00
2024-03-11T06:52:46.918Z,93968.00
2024-03-11T06:53:46.861Z,93968.00
2024-03-11T06:54:46.936Z,93976.00
2024-03-11T06:55:47.029Z,93971.00
2024-03-11T06:56:47.192Z,93976.00
2024-03-11T06:57:47.518Z,93979.00
2024-03-11T06:58:47.687Z,93981.00
2024-03-11T06:59:47.426Z,93983.00
2024-03-11T07:00:48.473Z,93986.00
2024-03-11T07:01:47.518Z,93986.00
2024-03-11T07:02:47.460Z,93985.00
2024-03-11T07:03:47.530Z,93984.00
2024-03-11T07:04:47.672Z,93985.00
2024-03-11T07:05:47.604Z,93986.00
2024-03-11T07:06:47.610Z,93984.00
2024-03-11T07:07:48.090Z,93987.00
2024-03-11T07:08:47.688Z,93986.00
2024-03-11T07:09:48.003Z,93990.00
2024-03-11T07:10:47.813Z,93989.00
2024-03-11T07:11:47.935Z,93994.00
2024-03-11T07:12:47.903Z,93996.00
2024-03-11T07:13:47.952Z,93996.00
2024-03-11T07:14:47.968Z,94003.00
2024-03-11T07:15:48.046Z,94004.00
2024-03-11T07:16:48.159Z,94004.00
2024-03-11T07:17:49.912Z,94002.00
2024-03-11T07:18:48.306Z,94005.00
2024-03-11T07:19:48.174Z,94007.00
2024-03-11T07:20:48.715Z,94006.00
2024-03-11T07:21:48.504Z,94008.00
2024-03-11T07:22:48.217Z,94009.00
2024-03-11T07:23:48.194Z,94012.00
2024-03-11T07:24:48.711Z,94015.00
2024-03-11T07:25:48.213Z,94019.00
2024-03-11T07:26:48.502Z,94022.00
2024-03-11T07:27:48.236Z,94026.00
2024-03-11T07:28:48.244Z,94030.00
2024-03-11T07:29:48.244Z,94032.00
2024-03-11T07:30:48.713Z,94030.00
2024-03-11T07:31:48.268Z,94032.00
2024-03-11T07:32:48.512Z,94031.00
2024-03-11T07:33:48.261Z,94030.00
2024-03-11T07:34:48.267Z,94033.00
2024-03-11T07:35:48.256Z,94034.00
2024-03-11T07:36:48.503Z,94034.00
2024-03-11T07:37:48.348Z,94033.00
2024-03-11T07:38:48.246Z,94036.00
2024-03-11T07:39:48.357Z,94039.00
2024-03-11T07:40:48.317Z,94039.00
2024-03-11T07:41:48.494Z,94040.00
2024-03-11T07:42:48.286Z,94042.00
2024-03-11T07:43:48.293Z,94044.00
2024-03-11T07:44:48.382Z,94044.00
2024-03-11T07:45:48.499Z,94046.00
2024-03-11T07:46:48.495Z,94047.00
2024-03-11T07:47:48.559Z,94049.00
2024-03-11T07:48:48.629Z,94048.00
2024-03-11T07:49:48.663Z,94051.00
2024-03-11T07:50:49.800Z,94050.00
2024-03-11T07:51:49.076Z,94052.00
2024-03-11T07:52:48.999Z,94053.00
2024-03-11T07:53:48.920Z,94053.00
2024-03-11T07:54:49.022Z,94053.00
2024-03-11T07:55:49.053Z,94053.00
2024-03-11T07:56:49.514Z,94055.00
2024-03-11T07:57:49.147Z,94056.00
2024-03-11T07:58:49.223Z,94058.00
2024-03-11T07:59:49.301Z,94061.00
2024-03-11T08:00:49.391Z,94062.00
2024-03-11T08:01:50.408Z,94064.00
2024-03-11T08:02:49.499Z,94066.00
2024-03-11T08:03:49.544Z,94069.00
2024-03-11T08:04:51.480Z,94068.00
2024-03-11T08:05:49.578Z,94070.00
2024-03-11T08:06:50.035Z,94071.00
2024-03-11T08:07:49.586Z,94072.00
2024-03-11T08:08:49.582Z,94072.00
2024-03-11T08:09:49.585Z,94073.00
2024-03-11T08:10:49.591Z,94075.00
2024-03-11T08:11:50.079Z,94077.00
2024-03-11T08:12:49.607Z,94075.00
2024-03-11T08:13:49.589Z,94076.00
2024-03-11T08:14:49.595Z,94078.00
2024-03-11T08:15:49.596Z,94075.00
2024-03-11T08:16:50.056Z,94077.00
2024-03-11T08:17:49.636Z,94075.00
2024-03-11T08:18:50.012Z,94075.00
2024-03-11T08:19:49.606Z,94073.00
2024-03-11T08:20:49.685Z,94073.00
2024-03-11T08:21:49.644Z,94073.00
2024-03-11T08:22:49.783Z,94071.00
2024-03-11T08:23:49.650Z,94071.00
2024-03-11T08:24:49.646Z,94070.00
2024-03-11T08:25:49.721Z,94070.00
2024-03-11T08:26:50.019Z,94066.00
2024-03-11T08:27:49.818Z,94064.00
2024-03-11T08:28:49.900Z,94063.00
2024-03-11T08:29:49.955Z,94061.00
2024-03-11T08:30:50.021Z,94059.00
2024-03-11T08:31:50.093Z,94058.00
2024-03-11T08:32:50.234Z,94056.00
2024-03-11T08:33:50.257Z,94056.00
2024-03-11T08:34:50.314Z,94055.00
2024-03-11T08:35:50.375Z,94056.00
2024-03-11T08:36:50.543Z,94058.00
2024-03-11T08:37:50.492Z,94058.00
2024-03-11T08:38:51.630Z,94058.00
2024-03-11T08:39:50.642Z,94055.00
2024-03-11T08:40:50.732Z,94056.00
2024-03-11T08:41:50.760Z,94055.00
2024-03-11T08:42:50.830Z,94055.00
2024-03-11T08:43:50.880Z,94056.00
2024-03-11T08:44:51.007Z,94056.00
2024-03-11T08:45:51.042Z,94056.00
2024-03-11T08:46:51.594Z,94055.00
2024-03-11T08:47:51.220Z,94056.00
2024-03-11T08:48:51.224Z,94057.00
2024-03-11T08:49:51.239Z,94056.00
2024-03-11T08:50:51.307Z,94053.00
2024-03-11T08:51:51.334Z,94053.00
2024-03-11T08:52:51.736Z,94052.00
2024-03-11T08:53:51.529Z,94050.00
2024-03-11T08:54:51.550Z,94051.00
2024-03-11T08:55:51.614Z,94050.00
2024-03-11T08:56:52.036Z,94048.00
2024-03-11T08:57:53.021Z,94049.00
2024-03-11T08:58:55.064Z,94050.00
2024-03-11T08:59:52.821Z,94050.00
2024-03-11T09:00:51.839Z,94049.00
2024-03-11T09:01:51.784Z,94045.00
2024-03-11T09:02:51.812Z,94042.00
2024-03-11T09:03:51.852Z,94042.00
2024-03-11T09:04:51.829Z,94040.00
2024-03-11T09:05:51.801Z,94038.00
2024-03-11T09:06:52.141Z,94038.00
2024-03-11T09:07:52.948Z,94038.00
2024-03-11T09:08:53.809Z,94036.00
2024-03-11T09:09:52.093Z,94035.00
2024-03-11T09:10:52.052Z,94035.00
2024-03-11T09:11:52.063Z,94034.00
2024-03-11T09:12:52.053Z,94033.00
2024-03-11T09:13:52.035Z,94032.00
2024-03-11T09:14:52.024Z,94031.00
2024-03-11T09:15:52.096Z,94030.00
2024-03-11T09:16:52.024Z,94028.00
2024-03-11T09:17:53.000Z,94028.00
2024-03-11T09:18:52.034Z,94028.00
2024-03-11T09:19:52.073Z,94025.00
2024-03-11T09:20:52.108Z,94025.00
2024-03-11T09:21:52.180Z,94027.00
2024-03-11T09:22:52.294Z,94024.00
2024-03-11T09:23:52.174Z,94024.00
2024-03-11T09:24:52.305Z,94025.00
2024-03-11T09:25:52.241Z,94024.00
2024-03-11T09:26:52.617Z,94021.00
2024-03-11T09:27:52.489Z,94021.00
2024-03-11T09:28:55.730Z,94019.00
2024-03-11T09:29:52.497Z,94021.00
2024-03-11T09:30:52.603Z,94018.00
2024-03-11T09:31:52.507Z,94013.00
2024-03-11T09:32:52.647Z,94014.00
2024-03-11T09:33:52.583Z,94012.00
2024-03-11T09:34:52.520Z,94009.00
2024-03-11T09:35:52.487Z,94010.00
2024-03-11T09:36:52.603Z,94008.00
2024-03-11T09:37:52.575Z,94007.00
2024-03-11T09:38:52.530Z,94011.00
2024-03-11T09:39:52.621Z,94012.00
2024-03-11T09:40:52.557Z,94010.00
2024-03-11T09:41:52.545Z,94014.00
2024-03-11T09:42:52.832Z,94012.00
2024-03-11T09:43:52.544Z,94012.00
2024-03-11T09:44:52.539Z,94012.00
2024-03-11T09:45:52.619Z,94012.00
2024-03-11T09:46:52.664Z,94011.00
2024-03-11T09:47:52.574Z,94012.00
2024-03-11T09:48:52.678Z,94012.00
2024-03-11T09:49:52.548Z,94015.00
2024-03-11T09:50:52.563Z,94015.00
2024-03-11T09:51:52.588Z,94015.00
2024-03-11T09:52:52.556Z,94018.00
2024-03-11T09:53:52.549Z,94016.00
2024-03-11T09:54:52.576Z,94016.00
2024-03-11T09:55:52.566Z,94016.00
2024-03-11T09:56:52.683Z,94014.00
2024-03-11T09:57:52.822Z,94011.00
2024-03-11T09:58:52.889Z,94010.00
2024-03-11T09:59:52.966Z,94009.00
2024-03-11T10:00:53.686Z,94010.00
2024-03-11T10:01:53.096Z,94009.00
2024-03-11T10:02:53.148Z,94011.00
2024-03-11T10:03:53.170Z,94011.00
2024-03-11T10:04:53.130Z,94011.00
2024-03-11T10:05:53.178Z,94012.00
2024-03-11T10:06:53.230Z,94012.00
2024-03-11T10:07:53.560Z,94012.00
2024-03-11T10:08:53.323Z,94012.00
2024-03-11T10:09:53.499Z,94012.00
2024-03-11T10:10:53.558Z,94012.00
2024-03-11T10:11:54.072Z,94011.00
2024-03-11T10:12:53.797Z,94011.00
2024-03-11T10:13:53.817Z,94013.00
2024-03-11T10:14:53.938Z,94013.00
2024-03-11T10:15:54.058Z,94013.00
2024-03-11T10:16:54.929Z,94015.00
2024-03-11T10:17:54.161Z,94015.00
2024-03-11T10:19:02.650Z,94015.00
2024-03-11T10:19:55.361Z,94015.00
2024-03-11T10:20:54.164Z,94017.00
2024-03-11T10:21:54.246Z,94015.00
2024-03-11T10:22:54.175Z,94017.00
2024-03-11T10:23:54.631Z,94014.00
2024-03-11T10:24:54.278Z,94016.00
2024-03-11T10:25:54.379Z,94016.00
2024-03-11T10:26:54.462Z,94013.00
2024-03-11T10:27:54.580Z,94012.00
2024-03-11T10:28:55.127Z,94013.00
2024-03-11T10:29:55.069Z,94012.00
2024-03-11T10:30:56.202Z,94010.00
2024-03-11T10:31:55.070Z,94010.00
2024-03-11T10:33:03.188Z,94009.00
2024-03-11T10:33:54.894Z,94011.00
2024-03-11T10:34:54.841Z,94012.00
2024-03-11T10:35:54.854Z,94011.00
2024-03-11T10:36:55.192Z,94013.00
2024-03-11T10:37:58.144Z,94009.00
2024-03-11T10:38:54.849Z,94008.00
2024-03-11T10:39:54.952Z,94008.00
2024-03-11T10:40:54.838Z,94007.00
2024-03-11T10:41:54.854Z,94007.00
2024-03-11T10:42:55.609Z,94007.00
2024-03-11T10:43:54.854Z,94005.00
2024-03-11T10:44:54.858Z,94007.00
2024-03-11T10:45:54.899Z,94004.00
2024-03-11T10:46:54.934Z,94010.00
2024-03-11T10:47:55.089Z,94007.00
2024-03-11T10:48:54.926Z,94006.00
2024-03-11T10:49:55.239Z,94004.00
2024-03-11T10:50:54.904Z,94001.00
2024-03-11T10:51:54.987Z,94001.00
2024-03-11T10:52:54.890Z,94001.00
2024-03-11T10:53:54.863Z,94001.00
2024-03-11T10:55:07.065Z,94001.00
2024-03-11T10:55:54.961Z,94000.00
2024-03-11T10:56:55.393Z,93998.00
2024-03-11T10:57:55.261Z,93994.00
2024-03-11T10:58:54.942Z,93994.00
2024-03-11T10:59:55.078Z,93991.00
2024-03-11T11:00:54.941Z,93991.00
2024-03-11T11:01:54.989Z,93991.00
2024-03-11T11:02:55.148Z,93992.00
2024-03-11T11:03:54.944Z,93992.00
2024-03-11T11:04:54.900Z,93991.00
2024-03-11T11:05:54.898Z,93992.00
2024-03-11T11:06:54.973Z,93990.00
2024-03-11T11:07:57.795Z,93989.00
2024-03-11T11:08:54.923Z,93989.00
2024-03-11T11:09:55.132Z,93989.00
2024-03-11T11:10:55.585Z,93988.00
2024-03-11T11:11:55.190Z,93989.00
2024-03-11T11:12:55.272Z,93988.00
2024-03-11T11:13:55.470Z,93990.00
2024-03-11T11:14:55.056Z,93987.00
2024-03-11T11:15:55.223Z,93986.00
2024-03-11T11:16:55.129Z,93983.00
2024-03-11T11:17:55.141Z,93986.00
2024-03-11T11:18:55.281Z,93985.00
2024-03-11T11:19:55.273Z,93985.00
2024-03-11T11:20:55.381Z,93986.00
2024-03-11T11:21:55.662Z,93987.00
2024-03-11T11:22:55.582Z,93987.00
2024-03-11T11:23:55.674Z,93988.00
2024-03-11T11:24:55.815Z,93989.00
2024-03-11T11:25:55.842Z,93988.00
2024-03-11T11:26:55.934Z,93986.00
2024-03-11T11:27:56.121Z,93989.00
2024-03-11T11:28:56.141Z,93985.00
2024-03-11T11:29:56.239Z,93983.00
2024-03-11T11:30:56.393Z,93981.00
2024-03-11T11:31:56.415Z,93982.00
2024-03-11T11:32:56.908Z,93978.00
2024-03-11T11:33:57.134Z,93978.00
2024-03-11T11:34:59.869Z,93975.00
2024-03-11T11:35:56.641Z,93974.00
2024-03-11T11:36:57.755Z,93973.00
2024-03-11T11:37:57.096Z,93973.00
2024-03-11T11:38:56.678Z,93971.00
2024-03-11T11:39:57.167Z,93973.00
2024-03-11T11:40:56.652Z,93972.00
2024-03-11T11:41:56.716Z,93976.00
2024-03-11T11:42:56.677Z,93978.00
2024-03-11T11:43:57.100Z,93977.00
2024-03-11T11:44:56.641Z,93975.00
2024-03-11T11:45:57.329Z,93978.00
2024-03-11T11:46:56.654Z,93978.00
2024-03-11T11:47:56.684Z,93979.00
2024-03-11T11:48:56.897Z,93983.00
2024-03-11T11:49:56.670Z,93982.00
2024-03-11T11:50:56.747Z,93983.00
2024-03-11T11:51:56.812Z,93981.00
2024-03-11T11:53:02.244Z,93982.00
2024-03-11T11:54:07.375Z,93982.00
2024-03-11T11:54:57.078Z,93981.00
2024-03-11T11:55:56.930Z,93981.00
2024-03-11T11:56:56.918Z,93979.00
2024-03-11T11:57:56.953Z,93980.00
2024-03-11T11:58:56.942Z,93978.00
2024-03-11T11:59:57.154Z,93978.00
2024-03-11T12:00:56.941Z,93980.00
2024-03-11T12:01:57.134Z,93979.00
2024-03-11T12:03:00.815Z,93979.00
2024-03-11T12:03:57.208Z,93981.00
2024-03-11T12:04:57.035Z,93980.00
2024-03-11T12:05:56.923Z,93982.00
2024-03-11T12:06:57.049Z,93981.00
2024-03-11T12:07:56.978Z,93979.00
2024-03-11T12:08:59.770Z,93979.00
2024-03-11T12:09:57.008Z,93979.00
2024-03-11T12:10:56.943Z,93976.00
2024-03-11T12:11:56.956Z,93973.00
2024-03-11T12:12:57.005Z,93973.00
2024-03-11T12:13:56.963Z,93972.00
2024-03-11T12:14:57.625Z,93970.00
2024-03-11T12:15:57.042Z,93969.00
2024-03-11T12:16:56.998Z,93969.00
2024-03-11T12:17:57.121Z,93968.00
2024-03-11T12:18:57.134Z,93967.00
2024-03-11T12:19:57.005Z,93969.00
2024-03-11T12:21:00.352Z,93968.00
2024-03-11T12:21:57.085Z,93970.00
2024-03-11T12:22:57.065Z,93972.00
2024-03-11T12:23:57.045Z,93976.00
2024-03-11T12:24:57.030Z,93978.00
2024-03-11T12:25:57.040Z,93981.00
2024-03-11T12:26:57.051Z,93982.00
2024-03-11T12:28:03.260Z,93981.00
2024-03-11T12:28:57.045Z,93984.00
2024-03-11T12:29:57.453Z,93985.00
2024-03-11T12:30:57.177Z,93987.00
2024-03-11T12:31:57.088Z,93986.00
2024-03-11T12:32:57.142Z,93987.00
2024-03-11T12:33:57.120Z,93985.00